createdAt,value
2017-09-29T00:00:11.331Z,2.40
2017-09-29T00:02:38.826Z,2.40
2017-09-29T00:05:06.276Z,4.03
2017-09-29T00:07:33.692Z,2.00
2017-09-29T00:10:01.454Z,2.40
2017-09-29T00:12:29.243Z,2.03
2017-09-29T00:14:56.671Z,2.33
2017-09-29T00:17:24.087Z,2.13
2017-09-29T00:19:51.580Z,4.80
2017-09-29T00:22:18.989Z,3.33
2017-09-29T00:24:46.430Z,2.10
2017-09-29T00:27:13.970Z,2.10
2017-09-29T00:29:41.393Z,2.30
2017-09-29T00:32:08.798Z,2.17
2017-09-29T00:34:36.256Z,1.83
2017-09-29T00:37:03.671Z,1.97
2017-09-29T00:39:31.114Z,2.43
2017-09-29T00:41:58.555Z,1.90
2017-09-29T00:44:26.196Z,2.10
2017-09-29T00:46:53.607Z,2.40
2017-09-29T00:49:21.483Z,2.00
2017-09-29T00:51:49.505Z,2.10
2017-09-29T00:54:16.979Z,2.85
2017-09-29T00:56:45.088Z,2.10
2017-09-29T00:59:12.508Z,1.90
2017-09-29T01:01:39.919Z,2.50
2017-09-29T01:04:07.381Z,2.43
2017-09-29T01:06:34.782Z,2.03
2017-09-29T01:09:02.191Z,3.17
2017-09-29T01:11:29.649Z,2.03
2017-09-29T01:13:57.095Z,2.10
2017-09-29T01:16:24.546Z,1.87
2017-09-29T01:18:52.062Z,1.80
2017-09-29T01:21:19.487Z,2.07
2017-09-29T01:23:47.028Z,2.17
2017-09-29T01:26:14.536Z,2.20
2017-09-29T01:28:42.047Z,2.00
2017-09-29T01:31:09.449Z,1.90
2017-09-29T01:33:37.038Z,1.90
2017-09-29T01:36:04.493Z,1.97
2017-09-29T01:38:31.955Z,2.40
2017-09-29T01:40:59.491Z,2.10
2017-09-29T01:43:26.922Z,2.00
2017-09-29T01:45:54.618Z,2.37
2017-09-29T01:48:22.480Z,1.80
2017-09-29T01:50:49.889Z,2.80
2017-09-29T01:53:17.348Z,2.00
2017-09-29T01:55:44.795Z,1.50
2017-09-29T01:58:12.253Z,1.93
2017-09-29T02:00:39.657Z,2.13
2017-09-29T02:03:07.245Z,2.20
2017-09-29T02:05:34.653Z,2.00
2017-09-29T02:08:02.073Z,1.80
2017-09-29T02:10:29.697Z,2.23
2017-09-29T02:12:57.109Z,1.97
2017-09-29T02:15:24.535Z,1.80
2017-09-29T02:17:52.010Z,3.57
2017-09-29T02:23:12.183Z,2.08
2017-09-29T02:25:39.605Z,2.20
2017-09-29T02:28:07.015Z,1.90
2017-09-29T02:30:34.503Z,2.50
2017-09-29T02:33:02.081Z,1.90
2017-09-29T02:35:29.494Z,1.97
2017-09-29T02:37:57.341Z,1.70
2017-09-29T02:40:24.779Z,2.10
2017-09-29T02:42:52.309Z,1.60
2017-09-29T02:45:20.105Z,2.03
2017-09-29T02:47:47.576Z,2.50
2017-09-29T02:50:15.006Z,2.27
2017-09-29T02:52:42.479Z,2.00
2017-09-29T02:55:09.891Z,2.23
2017-09-29T02:57:38.344Z,1.93
2017-09-29T03:00:08.035Z,2.23
2017-09-29T03:02:37.157Z,1.67
2017-09-29T03:05:06.367Z,2.60
2017-09-29T03:07:33.825Z,2.30
2017-09-29T03:10:01.239Z,1.73
2017-09-29T03:12:28.707Z,2.00
2017-09-29T03:14:56.540Z,1.80
2017-09-29T03:17:23.957Z,3.10
2017-09-29T03:19:51.371Z,2.23
2017-09-29T03:22:18.901Z,1.80
2017-09-29T03:24:46.568Z,1.90
2017-09-29T03:27:13.980Z,2.20
2017-09-29T03:29:41.430Z,2.10
2017-09-29T03:32:08.859Z,2.10
2017-09-29T03:34:36.266Z,3.80
2017-09-29T03:37:03.800Z,2.00
2017-09-29T03:39:31.217Z,1.90
2017-09-29T03:41:58.620Z,1.97
2017-09-29T03:44:26.079Z,2.15
2017-09-29T03:46:53.492Z,1.90
2017-09-29T03:49:20.898Z,2.10
2017-09-29T03:51:53.927Z,2.20
2017-09-29T03:54:23.543Z,1.80
2017-09-29T03:56:51.955Z,2.03
2017-09-29T03:59:21.353Z,1.80
2017-09-29T04:01:48.768Z,3.83
2017-09-29T04:04:16.178Z,2.40
2017-09-29T04:06:43.895Z,2.13
2017-09-29T04:09:11.306Z,5.80
2017-09-29T04:11:38.720Z,1.87
2017-09-29T04:14:06.172Z,1.80
2017-09-29T04:16:33.599Z,3.13
2017-09-29T04:19:01.023Z,1.80
2017-09-29T04:21:28.765Z,2.60
2017-09-29T04:23:56.296Z,2.30
2017-09-29T04:26:23.850Z,2.57
2017-09-29T04:28:51.477Z,2.00
2017-09-29T04:31:18.909Z,2.93
2017-09-29T04:33:46.327Z,2.10
2017-09-29T04:36:13.884Z,1.85
2017-09-29T04:38:41.303Z,2.57
2017-09-29T04:41:08.728Z,3.63
2017-09-29T04:43:36.457Z,2.53
2017-09-29T04:46:03.914Z,7.70
2017-09-29T04:48:31.318Z,5.10
2017-09-29T04:50:58.777Z,6.20
2017-09-29T04:53:26.196Z,4.73
2017-09-29T04:55:53.740Z,6.03
2017-09-29T04:58:21.239Z,7.87
2017-09-29T05:00:48.661Z,8.70
2017-09-29T05:03:16.149Z,5.33
2017-09-29T05:05:43.598Z,3.80
2017-09-29T05:08:11.015Z,4.00
2017-09-29T05:10:39.387Z,3.33
2017-09-29T05:13:06.911Z,9.23
2017-09-29T05:15:34.339Z,10.47
2017-09-29T05:18:01.747Z,6.23
2017-09-29T05:20:29.342Z,5.20
2017-09-29T05:22:56.823Z,6.70
2017-09-29T05:25:24.260Z,6.60
2017-09-29T05:27:52.214Z,8.93
2017-09-29T05:30:19.668Z,9.17
2017-09-29T05:32:47.159Z,3.03
2017-09-29T05:35:15.002Z,3.30
2017-09-29T05:37:42.464Z,3.60
2017-09-29T05:40:09.870Z,3.03
2017-09-29T05:42:37.671Z,8.00
2017-09-29T05:45:05.084Z,4.50
2017-09-29T05:47:32.498Z,3.33
2017-09-29T05:50:00.161Z,4.90
2017-09-29T05:52:27.574Z,3.93
2017-09-29T05:54:54.990Z,8.00
2017-09-29T05:57:22.584Z,5.07
2017-09-29T05:59:50.079Z,8.60
2017-09-29T06:02:17.492Z,8.43
2017-09-29T06:04:45.420Z,11.60
2017-09-29T06:07:12.856Z,3.57
2017-09-29T06:09:40.274Z,4.63
2017-09-29T06:12:07.741Z,6.10
2017-09-29T06:14:35.174Z,7.40
2017-09-29T06:17:02.754Z,5.47
2017-09-29T06:19:30.553Z,4.13
2017-09-29T06:21:58.006Z,4.32
2017-09-29T06:24:25.490Z,9.50
2017-09-29T06:26:52.949Z,5.90
2017-09-29T06:29:20.395Z,4.33
2017-09-29T06:31:47.805Z,5.30
2017-09-29T06:34:15.382Z,5.37
2017-09-29T06:36:42.828Z,4.23
2017-09-29T06:39:10.236Z,7.93
2017-09-29T06:41:37.707Z,13.17
2017-09-29T06:44:05.619Z,4.55
2017-09-29T06:46:33.036Z,6.03
2017-09-29T06:49:00.486Z,4.50
2017-09-29T06:51:27.899Z,4.20
2017-09-29T06:53:55.446Z,3.13
2017-09-29T06:56:23.013Z,3.35
2017-09-29T06:58:50.428Z,2.77
2017-09-29T07:01:17.842Z,5.63
2017-09-29T07:03:45.290Z,4.10
2017-09-29T07:06:12.725Z,2.60
2017-09-29T07:08:40.145Z,3.27
2017-09-29T07:11:07.614Z,9.13
2017-09-29T07:13:35.087Z,3.90
2017-09-29T07:16:02.496Z,3.78
2017-09-29T07:18:30.338Z,2.97
2017-09-29T07:20:57.789Z,3.90
2017-09-29T07:23:25.205Z,7.57
2017-09-29T07:25:54.406Z,2.73
2017-09-29T07:28:23.539Z,3.30
2017-09-29T07:30:53.273Z,3.30
2017-09-29T07:33:20.898Z,4.03
2017-09-29T07:35:48.321Z,3.87
2017-09-29T07:38:15.743Z,2.57
2017-09-29T07:40:43.227Z,3.80
2017-09-29T07:43:10.641Z,3.13
2017-09-29T07:45:38.099Z,2.33
2017-09-29T07:48:05.854Z,4.00
2017-09-29T07:50:33.281Z,2.87
2017-09-29T07:53:00.690Z,2.70
2017-09-29T07:55:28.223Z,2.67
2017-09-29T07:57:55.689Z,3.40
2017-09-29T08:00:23.100Z,5.60
2017-09-29T08:02:50.553Z,2.80
2017-09-29T08:05:18.063Z,3.37
2017-09-29T08:07:45.480Z,2.27
2017-09-29T08:10:13.649Z,3.60
2017-09-29T08:12:41.095Z,2.75
2017-09-29T08:15:09.363Z,3.50
2017-09-29T08:17:36.841Z,3.10
2017-09-29T08:20:05.185Z,2.75
2017-09-29T08:22:32.639Z,4.60
2017-09-29T08:25:00.136Z,2.73
2017-09-29T08:27:27.659Z,2.80
2017-09-29T08:29:55.131Z,6.03
2017-09-29T08:32:22.588Z,2.30
2017-09-29T08:34:50.000Z,2.37
2017-09-29T08:37:17.399Z,2.60
2017-09-29T08:39:45.165Z,2.67
2017-09-29T08:42:12.582Z,2.93
2017-09-29T08:44:40.014Z,2.60
2017-09-29T08:47:07.450Z,2.10
2017-09-29T08:49:35.107Z,4.13
2017-09-29T08:52:02.548Z,2.43
2017-09-29T08:54:29.995Z,3.30
2017-09-29T08:56:57.411Z,2.40
2017-09-29T08:59:24.824Z,3.13
2017-09-29T09:01:52.722Z,5.70
2017-09-29T09:04:20.135Z,2.60
2017-09-29T09:06:47.642Z,6.00
2017-09-29T09:09:15.113Z,2.23
2017-09-29T09:11:42.543Z,2.65
2017-09-29T09:14:09.972Z,4.37
2017-09-29T09:16:37.434Z,5.10
2017-09-29T09:19:04.841Z,4.70
2017-09-29T09:21:32.350Z,4.90
2017-09-29T09:23:59.835Z,3.40
2017-09-29T09:26:27.242Z,5.80
2017-09-29T09:28:54.669Z,3.37
2017-09-29T09:31:22.510Z,7.00
2017-09-29T09:33:50.210Z,3.73
2017-09-29T09:36:17.787Z,3.33
2017-09-29T09:38:45.353Z,4.20
2017-09-29T09:41:12.799Z,6.85
2017-09-29T09:43:40.218Z,5.23
2017-09-29T09:46:07.678Z,8.80
2017-09-29T09:48:35.096Z,8.40
2017-09-29T09:51:02.544Z,4.23
2017-09-29T09:53:30.340Z,5.27
2017-09-29T09:55:57.747Z,6.70
2017-09-29T09:58:25.257Z,9.00
2017-09-29T10:00:53.121Z,7.53
2017-09-29T10:03:20.537Z,5.73
2017-09-29T10:05:47.964Z,7.37
2017-09-29T10:08:15.602Z,7.83
2017-09-29T10:10:43.016Z,15.53
2017-09-29T10:13:10.424Z,7.27
2017-09-29T10:15:38.475Z,10.10
2017-09-29T10:18:05.884Z,8.00
2017-09-29T10:20:33.292Z,8.03
2017-09-29T10:23:01.152Z,8.27
2017-09-29T10:25:28.578Z,8.00
2017-09-29T10:27:55.990Z,9.60
2017-09-29T10:30:23.447Z,8.47
2017-09-29T10:32:50.880Z,6.20
2017-09-29T10:35:18.291Z,5.50
2017-09-29T10:37:45.732Z,5.13
2017-09-29T10:40:13.210Z,5.07
2017-09-29T10:42:40.630Z,5.00
2017-09-29T10:45:08.459Z,10.70
2017-09-29T10:47:35.877Z,5.97
2017-09-29T10:50:03.303Z,4.77
2017-09-29T10:52:31.142Z,8.07
2017-09-29T10:54:58.671Z,7.57
2017-09-29T10:57:26.102Z,8.40
2017-09-29T10:59:53.739Z,5.73
2017-09-29T11:02:21.151Z,4.78
2017-09-29T11:04:48.626Z,5.50
2017-09-29T11:07:16.277Z,4.47
2017-09-29T11:09:43.697Z,5.03
2017-09-29T11:12:11.120Z,8.27
2017-09-29T11:14:38.640Z,6.03
2017-09-29T11:17:06.047Z,4.73
2017-09-29T11:19:33.461Z,8.43
2017-09-29T11:22:00.913Z,5.60
2017-09-29T11:24:28.339Z,4.30
2017-09-29T11:26:55.753Z,8.07
2017-09-29T11:29:23.234Z,7.70
2017-09-29T11:31:50.648Z,4.90
2017-09-29T11:34:18.074Z,4.90
2017-09-29T11:36:45.879Z,6.03
2017-09-29T11:39:13.328Z,5.30
2017-09-29T11:41:40.741Z,6.68
2017-09-29T11:44:08.498Z,5.70
2017-09-29T11:46:36.104Z,10.70
2017-09-29T11:49:03.572Z,11.20
2017-09-29T11:51:31.014Z,7.90
2017-09-29T11:53:58.435Z,5.60
2017-09-29T11:56:25.880Z,5.67
2017-09-29T11:58:53.488Z,6.93
2017-09-29T12:01:20.897Z,5.50
2017-09-29T12:03:48.342Z,5.77
2017-09-29T12:06:15.780Z,5.63
2017-09-29T12:08:43.205Z,4.23
2017-09-29T12:11:10.628Z,6.43
2017-09-29T12:13:38.083Z,6.00
2017-09-29T12:16:05.531Z,4.13
2017-09-29T12:18:32.949Z,4.83
2017-09-29T12:21:00.417Z,7.27
2017-09-29T12:23:27.873Z,4.50
2017-09-29T12:25:55.361Z,6.53
2017-09-29T12:28:23.603Z,6.30
2017-09-29T12:30:51.071Z,4.20
2017-09-29T12:33:18.475Z,5.03
2017-09-29T12:35:46.155Z,4.60
2017-09-29T12:38:13.644Z,3.83
2017-09-29T12:40:41.054Z,4.23
2017-09-29T12:43:08.507Z,4.20
2017-09-29T12:45:35.924Z,4.27
2017-09-29T12:48:03.370Z,6.83
2017-09-29T12:50:31.212Z,3.70
2017-09-29T12:52:58.621Z,3.90
2017-09-29T12:55:26.035Z,4.00
2017-09-29T12:57:53.497Z,5.23
2017-09-29T13:00:20.907Z,3.60
2017-09-29T13:02:48.360Z,4.83
2017-09-29T13:05:15.994Z,5.07
2017-09-29T13:07:43.531Z,4.10
2017-09-29T13:10:10.944Z,4.40
2017-09-29T13:12:38.712Z,5.30
2017-09-29T13:15:06.134Z,4.20
2017-09-29T13:17:33.579Z,6.63
2017-09-29T13:20:01.195Z,4.15
2017-09-29T13:22:28.620Z,4.43
2017-09-29T13:24:56.154Z,4.40
2017-09-29T13:27:23.666Z,8.40
2017-09-29T13:29:51.088Z,4.03
2017-09-29T13:32:18.523Z,4.17
2017-09-29T13:34:46.448Z,4.60
2017-09-29T13:37:13.860Z,4.70
2017-09-29T13:39:41.329Z,7.85
2017-09-29T13:42:08.802Z,13.30
2017-09-29T13:44:36.220Z,4.10
2017-09-29T13:47:03.647Z,7.50
2017-09-29T13:49:31.082Z,8.80
2017-09-29T13:51:58.506Z,6.40
2017-09-29T13:54:25.916Z,4.53
2017-09-29T13:56:53.413Z,5.00
2017-09-29T13:59:20.821Z,9.17
2017-09-29T14:01:48.230Z,6.70
2017-09-29T14:04:16.133Z,8.50
2017-09-29T14:06:43.554Z,4.20
2017-09-29T14:09:10.984Z,6.53
2017-09-29T14:11:38.526Z,5.90
2017-09-29T14:14:06.048Z,7.40
2017-09-29T14:16:33.471Z,5.10
2017-09-29T14:19:00.952Z,5.97
2017-09-29T14:21:28.361Z,6.93
2017-09-29T14:23:55.766Z,6.10
2017-09-29T14:26:23.217Z,7.15
2017-09-29T14:28:51.277Z,7.03
2017-09-29T14:31:18.684Z,9.17
2017-09-29T14:33:46.146Z,4.90
2017-09-29T14:36:13.690Z,12.13
2017-09-29T14:38:41.175Z,15.83
2017-09-29T14:41:09.009Z,8.83
2017-09-29T14:43:36.440Z,14.17
2017-09-29T14:46:03.872Z,9.87
2017-09-29T14:48:31.482Z,8.17
2017-09-29T14:50:59.007Z,5.77
2017-09-29T14:53:26.417Z,11.80
2017-09-29T14:55:54.363Z,8.10
2017-09-29T14:58:21.789Z,12.37
2017-09-29T15:00:49.199Z,9.53
2017-09-29T15:03:16.634Z,9.83
2017-09-29T15:05:44.054Z,8.10
2017-09-29T15:08:11.458Z,6.00
2017-09-29T15:10:39.510Z,6.93
2017-09-29T15:13:06.991Z,8.07
2017-09-29T15:15:34.399Z,7.40
2017-09-29T15:18:01.968Z,8.83
2017-09-29T15:20:29.379Z,6.53
2017-09-29T15:22:56.790Z,12.30
2017-09-29T15:25:24.247Z,9.30
2017-09-29T15:27:51.716Z,8.50
2017-09-29T15:30:19.117Z,8.23
2017-09-29T15:32:46.725Z,10.50
2017-09-29T15:35:14.141Z,6.93
2017-09-29T15:37:41.554Z,7.72
2017-09-29T15:40:09.014Z,11.50
2017-09-29T15:42:36.427Z,8.53
2017-09-29T15:45:03.888Z,12.30
2017-09-29T15:47:31.987Z,9.37
2017-09-29T15:49:59.421Z,6.03
2017-09-29T15:52:26.905Z,7.87
2017-09-29T15:54:54.360Z,7.07
2017-09-29T15:57:21.772Z,7.83
2017-09-29T15:59:49.269Z,8.40
2017-09-29T16:02:16.721Z,9.35
2017-09-29T16:04:44.179Z,5.63
2017-09-29T16:07:11.596Z,8.70
2017-09-29T16:09:39.288Z,7.67
2017-09-29T16:12:07.218Z,6.07
2017-09-29T16:14:34.644Z,5.60
2017-09-29T16:17:02.102Z,6.20
2017-09-29T16:19:29.531Z,6.63
2017-09-29T16:21:56.986Z,7.27
2017-09-29T16:24:24.548Z,14.43
2017-09-29T16:26:52.019Z,16.97
2017-09-29T16:29:19.453Z,5.30
2017-09-29T16:31:46.895Z,9.30
2017-09-29T16:34:14.317Z,9.33
2017-09-29T16:36:41.737Z,10.40
2017-09-29T16:39:09.276Z,9.40
2017-09-29T16:41:36.747Z,6.33
2017-09-29T16:44:04.172Z,9.53
2017-09-29T16:46:31.626Z,7.30
2017-09-29T16:48:59.047Z,13.13
2017-09-29T16:51:26.454Z,4.47
2017-09-29T16:53:54.135Z,9.50
2017-09-29T16:56:21.554Z,8.47
2017-09-29T16:58:48.980Z,9.30
2017-09-29T17:01:16.825Z,14.10
2017-09-29T17:03:45.286Z,8.20
2017-09-29T17:06:13.098Z,10.73
2017-09-29T17:08:40.604Z,12.70
2017-09-29T17:11:08.350Z,6.03
2017-09-29T17:13:35.813Z,4.97
2017-09-29T17:16:03.331Z,7.45
2017-09-29T17:18:30.765Z,7.77
2017-09-29T17:20:58.258Z,5.33
2017-09-29T17:23:25.738Z,7.63
2017-09-29T17:25:53.213Z,3.83
2017-09-29T17:28:20.706Z,6.07
2017-09-29T17:30:48.240Z,6.27
2017-09-29T17:33:15.707Z,7.83
2017-09-29T17:35:43.180Z,4.67
2017-09-29T17:38:11.146Z,5.37
2017-09-29T17:40:38.578Z,9.40
2017-09-29T17:43:06.060Z,4.13
2017-09-29T17:45:33.558Z,2.90
2017-09-29T17:48:01.032Z,6.60
2017-09-29T17:50:28.527Z,4.83
2017-09-29T17:52:59.903Z,7.23
2017-09-29T17:55:27.369Z,4.17
2017-09-29T17:57:55.797Z,8.33
2017-09-29T18:00:23.622Z,3.10
2017-09-29T18:02:51.087Z,8.07
2017-09-29T18:05:18.727Z,4.03
2017-09-29T18:07:46.642Z,8.53
2017-09-29T18:10:14.149Z,6.43
2017-09-29T18:12:41.751Z,4.10
2017-09-29T18:15:09.343Z,6.13
2017-09-29T18:17:36.823Z,3.33
2017-09-29T18:20:05.096Z,3.42
2017-09-29T18:22:33.477Z,6.47
2017-09-29T18:25:00.904Z,5.27
2017-09-29T18:27:28.306Z,9.27
2017-09-29T18:29:55.813Z,8.50
2017-09-29T18:32:23.650Z,7.70
2017-09-29T18:34:51.226Z,6.03
2017-09-29T18:37:18.786Z,7.17
2017-09-29T18:39:46.623Z,8.80
2017-09-29T18:42:14.468Z,5.83
2017-09-29T18:47:45.854Z,6.50
2017-09-29T18:50:13.724Z,4.30
2017-09-29T18:52:41.274Z,4.63
2017-09-29T18:55:09.331Z,5.70
2017-09-29T18:57:36.993Z,8.50
2017-09-29T19:00:05.505Z,8.88
2017-09-29T19:02:33.032Z,7.13
2017-09-29T19:05:00.841Z,3.03
2017-09-29T19:07:28.318Z,4.83
2017-09-29T19:09:56.109Z,5.30
2017-09-29T19:12:24.196Z,5.77
2017-09-29T19:14:51.608Z,3.87
2017-09-29T19:17:19.020Z,2.60
2017-09-29T19:19:46.488Z,9.13
2017-09-29T19:22:13.990Z,3.90
2017-09-29T19:24:41.392Z,3.77
2017-09-29T19:27:09.168Z,6.83
2017-09-29T19:29:36.578Z,2.73
2017-09-29T19:32:05.041Z,6.30
2017-09-29T19:34:32.917Z,6.90
2017-09-29T19:37:00.459Z,6.87
2017-09-29T19:39:28.286Z,5.57
2017-09-29T19:41:55.887Z,14.90
2017-09-29T19:44:23.717Z,5.27
2017-09-29T19:46:51.584Z,5.03
2017-09-29T19:49:19.266Z,9.50
2017-09-29T19:51:47.217Z,3.40
2017-09-29T19:54:14.715Z,5.67
2017-09-29T19:56:42.839Z,4.53
2017-09-29T19:59:10.429Z,6.30
2017-09-29T20:01:37.976Z,4.07
2017-09-29T20:04:06.022Z,5.80
2017-09-29T20:06:33.633Z,5.97
2017-09-29T20:09:01.115Z,3.90
2017-09-29T20:11:28.618Z,3.93
2017-09-29T20:13:56.081Z,9.17
2017-09-29T20:16:23.628Z,10.53
2017-09-29T20:18:51.163Z,7.00
2017-09-29T20:21:18.635Z,2.90
2017-09-29T20:23:46.299Z,3.40
2017-09-29T20:26:13.908Z,5.60
2017-09-29T20:28:41.360Z,2.60
2017-09-29T20:31:08.907Z,6.10
2017-09-29T20:33:36.399Z,5.07
2017-09-29T20:36:03.897Z,4.40
2017-09-29T20:38:31.423Z,3.27
2017-09-29T20:40:59.293Z,4.60
2017-09-29T20:43:26.759Z,5.50
2017-09-29T20:45:54.232Z,4.13
2017-09-29T20:48:21.724Z,2.63
2017-09-29T20:50:49.195Z,3.90
2017-09-29T20:53:16.749Z,6.13
2017-09-29T20:55:44.415Z,2.80
2017-09-29T20:58:11.884Z,2.90
2017-09-29T21:00:39.354Z,2.37
2017-09-29T21:03:07.339Z,2.63
2017-09-29T21:05:34.841Z,7.97
2017-09-29T21:08:02.412Z,4.90
2017-09-29T21:10:30.515Z,2.97
2017-09-29T21:12:57.974Z,5.80
2017-09-29T21:15:25.436Z,3.80
2017-09-29T21:17:53.359Z,4.80
2017-09-29T21:20:20.833Z,4.63
2017-09-29T21:22:48.320Z,3.23
2017-09-29T21:25:16.187Z,4.80
2017-09-29T21:27:43.651Z,3.97
2017-09-29T21:30:11.102Z,2.50
2017-09-29T21:32:38.620Z,3.40
2017-09-29T21:35:06.126Z,3.60
2017-09-29T21:37:33.586Z,3.43
2017-09-29T21:40:01.088Z,3.57
2017-09-29T21:42:28.557Z,3.30
2017-09-29T21:44:56.017Z,2.83
2017-09-29T21:47:23.813Z,2.77
2017-09-29T21:49:51.273Z,2.60
2017-09-29T21:52:18.748Z,2.40
2017-09-29T21:54:46.327Z,3.13
2017-09-29T21:57:13.790Z,2.53
2017-09-29T21:59:41.263Z,7.20
2017-09-29T22:02:08.780Z,2.77
2017-09-29T22:04:36.233Z,2.40
2017-09-29T22:07:03.711Z,2.60
2017-09-29T22:09:31.211Z,2.97
2017-09-29T22:11:58.693Z,2.33
2017-09-29T22:14:26.161Z,6.03
2017-09-29T22:16:53.740Z,2.40
2017-09-29T22:19:21.191Z,2.03
2017-09-29T22:21:48.639Z,2.10
2017-09-29T22:24:16.189Z,2.90
2017-09-29T22:26:43.770Z,2.40
2017-09-29T22:29:11.267Z,2.23
2017-09-29T22:31:38.774Z,3.20
2017-09-29T22:34:06.280Z,2.50
2017-09-29T22:36:33.791Z,3.63
2017-09-29T22:39:02.021Z,2.63
2017-09-29T22:41:29.487Z,4.30
2017-09-29T22:43:56.968Z,2.20
2017-09-29T22:46:24.565Z,2.47
2017-09-29T22:48:52.118Z,3.70
2017-09-29T22:51:20.392Z,2.10
2017-09-29T22:53:48.080Z,2.23
2017-09-29T22:56:15.551Z,2.27
2017-09-29T22:58:43.007Z,2.27
2017-09-29T23:01:10.669Z,2.33
2017-09-29T23:03:38.130Z,2.30
2017-09-29T23:06:05.631Z,1.90
2017-09-29T23:08:33.425Z,3.63
2017-09-29T23:11:00.895Z,2.47
2017-09-29T23:13:28.359Z,2.43
2017-09-29T23:15:56.157Z,2.90
2017-09-29T23:18:23.622Z,2.27
2017-09-29T23:20:51.080Z,2.30
2017-09-29T23:23:18.641Z,2.20
2017-09-29T23:25:46.128Z,3.37
2017-09-29T23:28:13.666Z,2.40
2017-09-29T23:30:41.215Z,2.50
2017-09-29T23:33:08.678Z,2.20
2017-09-29T23:35:36.146Z,1.60
2017-09-29T23:38:03.645Z,3.50
2017-09-29T23:40:31.103Z,2.07
2017-09-29T23:42:58.567Z,2.47
2017-09-29T23:45:26.067Z,4.03
2017-09-29T23:47:53.554Z,2.47
2017-09-29T23:50:21.038Z,2.00
2017-09-29T23:52:48.534Z,2.07
2017-09-29T23:55:16.000Z,2.70
2017-09-29T23:57:43.549Z,2.40
